createdAt,value
2018-06-14T00:00:48.460Z,8.03
2018-06-14T00:03:16.046Z,5.67
2018-06-14T00:05:43.662Z,5.67
2018-06-14T00:08:11.226Z,5.20
2018-06-14T00:10:38.818Z,5.25
2018-06-14T00:13:06.402Z,6.62
2018-06-14T00:15:33.996Z,5.28
2018-06-14T00:18:01.582Z,5.62
2018-06-14T00:20:29.223Z,4.30
2018-06-14T00:22:56.786Z,4.87
2018-06-14T00:25:24.566Z,3.75
2018-06-14T00:27:52.241Z,3.67
2018-06-14T00:30:19.878Z,3.35
2018-06-14T00:32:47.446Z,4.30
2018-06-14T00:35:15.017Z,4.87
2018-06-14T00:37:42.628Z,4.10
2018-06-14T00:40:10.214Z,3.80
2018-06-14T00:43:08.463Z,7.45
2018-06-14T00:45:36.047Z,3.67
2018-06-14T00:48:03.693Z,3.67
2018-06-14T00:50:31.273Z,5.45
2018-06-14T00:52:59.174Z,6.80
2018-06-14T00:55:26.750Z,4.65
2018-06-14T00:57:54.530Z,4.25
2018-06-14T01:00:22.131Z,3.67
2018-06-14T01:02:49.713Z,4.10
2018-06-14T01:05:17.308Z,3.72
2018-06-14T01:07:44.882Z,3.20
2018-06-14T01:10:12.484Z,5.42
2018-06-14T01:12:40.058Z,5.22
2018-06-14T01:15:07.627Z,3.75
2018-06-14T01:17:35.252Z,3.47
2018-06-14T01:20:02.856Z,5.00
2018-06-14T01:22:30.427Z,5.33
2018-06-14T01:24:57.990Z,4.72
2018-06-14T01:27:25.649Z,4.42
2018-06-14T01:29:53.203Z,5.45
2018-06-14T01:32:20.772Z,6.58
2018-06-14T01:34:48.354Z,4.55
2018-06-14T01:37:16.930Z,6.47
2018-06-14T01:39:44.515Z,6.33
2018-06-14T01:42:12.089Z,3.80
2018-06-14T01:44:39.654Z,5.72
2018-06-14T01:47:07.248Z,3.75
2018-06-14T01:49:34.852Z,5.15
2018-06-14T01:52:02.442Z,5.60
2018-06-14T01:54:30.041Z,5.62
2018-06-14T01:56:57.626Z,4.28
2018-06-14T01:59:25.494Z,4.50
2018-06-14T02:01:53.090Z,4.15
2018-06-14T02:04:20.666Z,5.03
2018-06-14T02:06:48.218Z,4.97
2018-06-14T02:09:15.809Z,5.40
2018-06-14T02:11:43.422Z,6.05
2018-06-14T02:14:11.022Z,4.85
2018-06-14T02:16:38.709Z,6.53
2018-06-14T02:19:06.276Z,4.78
2018-06-14T02:21:33.878Z,4.20
2018-06-14T02:24:01.461Z,6.95
2018-06-14T02:26:29.050Z,4.53
2018-06-14T02:28:56.663Z,5.53
2018-06-14T02:31:24.586Z,5.95
2018-06-14T02:33:52.182Z,5.40
2018-06-14T02:36:19.807Z,7.45
2018-06-14T02:38:47.408Z,4.92
2018-06-14T02:41:14.982Z,6.00
2018-06-14T02:43:42.587Z,6.45
2018-06-14T02:46:10.185Z,4.20
2018-06-14T02:48:37.820Z,7.30
2018-06-14T02:51:05.404Z,4.90
2018-06-14T02:53:33.016Z,5.47
2018-06-14T02:56:00.654Z,4.15
2018-06-14T02:58:28.442Z,5.53
2018-06-14T03:00:56.060Z,5.72
2018-06-14T03:03:23.622Z,5.20
2018-06-14T03:05:51.209Z,5.53
2018-06-14T03:08:18.826Z,8.43
2018-06-14T03:10:46.425Z,6.35
2018-06-14T03:13:14.018Z,5.33
2018-06-14T03:15:41.602Z,4.95
2018-06-14T03:18:09.223Z,4.90
2018-06-14T03:20:36.830Z,6.28
2018-06-14T03:23:04.465Z,5.62
2018-06-14T03:25:32.042Z,5.55
2018-06-14T03:27:59.617Z,6.42
2018-06-14T03:30:27.599Z,6.50
2018-06-14T03:32:55.442Z,7.58
2018-06-14T03:35:23.062Z,5.72
2018-06-14T03:37:50.656Z,5.25
2018-06-14T03:40:18.234Z,4.42
2018-06-14T03:42:46.630Z,4.15
2018-06-14T03:45:21.082Z,5.70
2018-06-14T03:47:50.066Z,5.20
2018-06-14T03:50:17.647Z,3.92
2018-06-14T03:52:45.249Z,7.95
2018-06-14T03:55:12.822Z,7.08
2018-06-14T03:57:40.414Z,5.60
2018-06-14T04:00:08.121Z,6.15
2018-06-14T04:02:35.735Z,4.20
2018-06-14T04:05:03.651Z,5.70
2018-06-14T04:07:31.344Z,10.20
2018-06-14T04:09:59.078Z,5.70
2018-06-14T04:12:26.667Z,8.05
2018-06-14T04:14:54.530Z,4.97
2018-06-14T04:17:22.158Z,11.68
2018-06-14T04:19:49.782Z,6.22
2018-06-14T04:22:17.366Z,7.12
2018-06-14T04:24:45.262Z,10.60
2018-06-14T04:27:12.852Z,6.83
2018-06-14T04:29:40.415Z,7.25
2018-06-14T04:32:07.979Z,6.25
2018-06-14T04:34:35.550Z,6.00
2018-06-14T04:37:03.130Z,6.78
2018-06-14T04:39:30.711Z,5.08
2018-06-14T04:41:58.406Z,5.03
2018-06-14T04:44:26.142Z,5.62
2018-06-14T04:46:53.710Z,7.28
2018-06-14T04:49:21.285Z,8.03
2018-06-14T04:51:48.853Z,4.17
2018-06-14T04:54:16.434Z,5.08
2018-06-14T04:56:44.058Z,5.78
2018-06-14T04:59:12.019Z,7.53
2018-06-14T05:01:39.638Z,6.78
2018-06-14T05:04:07.209Z,15.15
2018-06-14T05:06:35.439Z,14.55
2018-06-14T05:09:03.173Z,11.68
2018-06-14T05:11:30.758Z,9.70
2018-06-14T05:13:58.883Z,9.90
2018-06-14T05:16:26.806Z,6.97
2018-06-14T05:18:55.049Z,10.95
2018-06-14T05:21:22.659Z,7.08
2018-06-14T05:23:50.271Z,9.90
2018-06-14T05:26:17.864Z,13.62
2018-06-14T05:28:45.494Z,15.93
2018-06-14T05:31:13.055Z,15.05
2018-06-14T05:33:40.670Z,15.23
2018-06-14T05:36:09.536Z,14.90
2018-06-14T05:38:37.607Z,12.50
2018-06-14T05:41:05.258Z,8.68
2018-06-14T05:43:32.835Z,10.53
2018-06-14T05:46:00.415Z,7.25
2018-06-14T05:48:28.004Z,7.60
2018-06-14T05:50:56.432Z,8.25
2018-06-14T05:53:24.028Z,6.75
2018-06-14T05:55:51.650Z,19.25
2018-06-14T06:00:25.211Z,11.08
2018-06-14T06:02:53.199Z,5.60
2018-06-14T06:05:21.655Z,8.00
2018-06-14T06:07:49.631Z,8.18
2018-06-14T06:10:17.206Z,5.95
2018-06-14T06:12:44.760Z,6.10
2018-06-14T06:15:12.395Z,7.15
2018-06-14T06:17:39.982Z,6.15
2018-06-14T06:20:11.722Z,6.05
2018-06-14T06:22:39.586Z,7.83
2018-06-14T06:25:07.149Z,6.67
2018-06-14T06:27:34.707Z,5.65
2018-06-14T06:30:02.540Z,5.17
2018-06-14T06:32:30.163Z,6.70
2018-06-14T06:34:57.891Z,6.42
2018-06-14T06:37:26.894Z,7.05
2018-06-14T06:39:55.472Z,6.42
2018-06-14T06:42:23.514Z,9.08
2018-06-14T06:44:51.584Z,9.05
2018-06-14T06:47:19.152Z,5.78
2018-06-14T06:49:47.133Z,5.87
2018-06-14T06:52:14.707Z,7.72
2018-06-14T06:54:42.286Z,6.25
2018-06-14T06:57:09.898Z,10.08
2018-06-14T06:59:37.481Z,6.55
2018-06-14T07:02:05.140Z,7.42
2018-06-14T07:04:32.866Z,6.85
2018-06-14T07:07:00.444Z,8.10
2018-06-14T07:09:28.007Z,4.85
2018-06-14T07:11:55.821Z,5.70
2018-06-14T07:14:24.370Z,6.58
2018-06-14T07:16:52.794Z,7.58
2018-06-14T07:19:20.382Z,5.90
2018-06-14T07:21:48.049Z,7.78
2018-06-14T07:24:15.580Z,9.00
2018-06-14T07:26:43.470Z,5.62
2018-06-14T07:29:11.051Z,5.62
2018-06-14T07:33:17.114Z,6.45
2018-06-14T07:35:44.686Z,7.50
2018-06-14T07:38:12.332Z,5.15
2018-06-14T07:40:39.898Z,4.17
2018-06-14T07:43:07.513Z,4.42
2018-06-14T07:45:35.120Z,3.98
2018-06-14T07:48:02.695Z,6.72
2018-06-14T07:50:30.282Z,3.87
2018-06-14T07:52:58.014Z,5.85
2018-06-14T07:55:25.750Z,6.20
2018-06-14T07:57:53.327Z,4.97
2018-06-14T08:00:20.883Z,4.53
2018-06-14T08:02:48.439Z,6.62
2018-06-14T08:05:16.006Z,7.97
2018-06-14T08:07:43.576Z,5.87
2018-06-14T08:10:11.130Z,4.95
2018-06-14T08:12:38.734Z,7.47
2018-06-14T08:15:06.378Z,6.03
2018-06-14T08:17:33.985Z,7.30
2018-06-14T08:20:01.545Z,4.72
2018-06-14T08:22:29.534Z,6.85
2018-06-14T08:24:57.134Z,5.53
2018-06-14T08:27:24.756Z,7.47
2018-06-14T08:29:52.319Z,5.67
2018-06-14T08:32:19.997Z,8.08
2018-06-14T08:34:47.581Z,4.47
2018-06-14T08:37:15.146Z,9.03
2018-06-14T08:39:42.730Z,7.37
2018-06-14T08:42:10.295Z,6.05
2018-06-14T08:44:37.930Z,7.45
2018-06-14T08:47:05.533Z,5.80
2018-06-14T08:49:33.102Z,4.92
2018-06-14T08:52:00.659Z,10.13
2018-06-14T08:54:28.230Z,10.55
2018-06-14T08:56:55.834Z,5.95
2018-06-14T08:59:23.403Z,6.15
2018-06-14T09:01:51.567Z,6.28
2018-06-14T09:04:19.155Z,8.45
2018-06-14T09:06:46.771Z,7.25
2018-06-14T09:09:14.359Z,5.40
2018-06-14T09:11:42.094Z,7.87
2018-06-14T09:14:10.048Z,6.17
2018-06-14T09:16:37.887Z,6.05
2018-06-14T09:19:05.769Z,7.30
2018-06-14T09:21:33.334Z,6.28
2018-06-14T09:24:00.947Z,7.53
2018-06-14T09:26:28.930Z,6.92
2018-06-14T09:28:56.563Z,7.30
2018-06-14T09:31:24.274Z,8.13
2018-06-14T09:33:51.922Z,7.42
2018-06-14T09:36:19.506Z,5.87
2018-06-14T09:38:47.147Z,6.58
2018-06-14T09:41:14.743Z,6.12
2018-06-14T09:43:42.800Z,5.60
2018-06-14T09:46:10.359Z,6.83
2018-06-14T09:48:37.918Z,9.10
2018-06-14T09:51:05.499Z,6.92
2018-06-14T09:53:33.074Z,14.58
2018-06-14T09:56:00.646Z,5.92
2018-06-14T09:58:28.211Z,7.87
2018-06-14T10:00:55.801Z,5.62
2018-06-14T10:03:23.379Z,4.92
2018-06-14T10:05:50.966Z,6.30
2018-06-14T10:08:18.532Z,6.30
2018-06-14T10:10:46.117Z,5.62
2018-06-14T10:13:13.691Z,4.47
2018-06-14T10:15:41.267Z,7.60
2018-06-14T10:18:08.843Z,5.03
2018-06-14T10:20:36.471Z,5.10
2018-06-14T10:23:04.045Z,8.65
2018-06-14T10:25:31.635Z,6.85
2018-06-14T10:27:59.580Z,7.62
2018-06-14T10:30:27.190Z,7.92
2018-06-14T10:32:54.850Z,8.28
2018-06-14T10:35:22.410Z,4.62
2018-06-14T10:37:50.025Z,6.58
2018-06-14T10:40:17.578Z,7.30
2018-06-14T10:42:45.139Z,4.62
2018-06-14T10:45:12.738Z,4.62
2018-06-14T10:47:40.690Z,5.72
2018-06-14T10:50:08.268Z,6.35
2018-06-14T10:52:35.855Z,5.53
2018-06-14T10:55:03.514Z,5.70
2018-06-14T10:57:31.456Z,5.60
2018-06-14T10:59:59.526Z,6.42
2018-06-14T11:02:27.097Z,4.33
2018-06-14T11:04:54.759Z,6.55
2018-06-14T11:07:22.350Z,5.92
2018-06-14T11:09:49.950Z,7.22
2018-06-14T11:12:17.523Z,7.83
2018-06-14T11:14:45.075Z,5.25
2018-06-14T11:17:12.650Z,8.35
2018-06-14T11:19:40.226Z,5.28
2018-06-14T11:22:07.798Z,8.30
2018-06-14T11:24:35.416Z,5.08
2018-06-14T11:27:02.987Z,5.33
2018-06-14T11:29:30.565Z,5.35
2018-06-14T11:31:58.167Z,6.35
2018-06-14T11:34:25.746Z,7.40
2018-06-14T11:36:53.309Z,5.08
2018-06-14T11:39:20.877Z,7.45
2018-06-14T11:41:48.452Z,6.03
2018-06-14T11:44:16.043Z,8.75
2018-06-14T11:46:43.595Z,4.00
2018-06-14T11:49:11.434Z,5.95
2018-06-14T11:51:39.698Z,6.87
2018-06-14T11:54:07.574Z,7.00
2018-06-14T11:56:35.214Z,6.60
2018-06-14T11:59:02.826Z,3.95
2018-06-14T12:01:30.422Z,9.65
2018-06-14T12:03:58.306Z,5.20
2018-06-14T12:06:25.906Z,7.45
2018-06-14T12:08:53.494Z,8.65
2018-06-14T12:11:21.070Z,11.48
2018-06-14T12:13:48.670Z,5.60
2018-06-14T12:16:16.243Z,7.40
2018-06-14T12:18:43.845Z,6.05
2018-06-14T12:21:11.410Z,4.87
2018-06-14T12:23:38.966Z,6.40
2018-06-14T12:26:06.690Z,5.50
2018-06-14T12:28:34.303Z,9.33
2018-06-14T12:31:01.967Z,7.12
2018-06-14T12:33:29.542Z,5.65
2018-06-14T12:36:02.554Z,7.33
2018-06-14T12:38:30.162Z,5.28
2018-06-14T12:40:57.865Z,4.10
2018-06-14T12:43:25.562Z,9.03
2018-06-14T12:45:53.132Z,7.12
2018-06-14T12:48:20.746Z,5.10
2018-06-14T12:50:48.543Z,7.20
2018-06-14T12:53:16.355Z,6.00
2018-06-14T12:55:43.946Z,6.90
2018-06-14T12:58:11.563Z,8.55
2018-06-14T13:00:39.118Z,7.37
2018-06-14T13:03:06.698Z,7.17
2018-06-14T13:05:35.202Z,5.90
2018-06-14T13:08:03.273Z,8.68
2018-06-14T13:10:30.845Z,4.33
2018-06-14T13:12:58.806Z,6.87
2018-06-14T13:15:26.393Z,7.17
2018-06-14T13:17:53.939Z,5.25
2018-06-14T13:20:21.629Z,5.90
2018-06-14T13:22:49.210Z,6.62
2018-06-14T13:25:16.807Z,3.33
2018-06-14T13:27:44.392Z,9.98
2018-06-14T13:30:12.040Z,5.08
2018-06-14T13:32:39.962Z,10.00
2018-06-14T13:35:07.538Z,6.40
2018-06-14T13:37:35.122Z,6.25
2018-06-14T13:40:02.729Z,6.72
2018-06-14T13:42:30.302Z,8.78
2018-06-14T13:44:57.914Z,6.47
2018-06-14T13:47:25.699Z,6.87
2018-06-14T13:49:53.254Z,7.60
2018-06-14T13:52:20.836Z,5.15
2018-06-14T13:54:48.473Z,5.65
2018-06-14T13:57:16.093Z,9.65
2018-06-14T13:59:43.662Z,6.37
2018-06-14T14:02:11.262Z,7.70
2018-06-14T14:04:38.822Z,4.78
2018-06-14T14:07:06.926Z,6.78
2018-06-14T14:09:34.696Z,8.05
2018-06-14T14:12:02.289Z,6.67
2018-06-14T14:14:30.053Z,6.50
2018-06-14T14:16:57.795Z,4.72
2018-06-14T14:19:25.734Z,7.60
2018-06-14T14:21:53.356Z,7.95
2018-06-14T14:24:21.566Z,8.48
2018-06-14T14:26:49.327Z,5.25
2018-06-14T14:29:16.920Z,9.58
2018-06-14T14:31:45.429Z,8.05
2018-06-14T14:34:13.342Z,7.67
2018-06-14T14:36:40.942Z,5.60
2018-06-14T14:39:09.806Z,8.38
2018-06-14T14:41:37.398Z,8.75
2018-06-14T14:44:05.059Z,7.80
2018-06-14T14:46:32.618Z,4.53
2018-06-14T14:49:00.189Z,6.00
2018-06-14T14:51:27.975Z,9.30
2018-06-14T14:53:55.575Z,5.42
2018-06-14T14:56:23.182Z,5.72
2018-06-14T14:58:50.721Z,4.92
2018-06-14T15:01:18.326Z,5.15
2018-06-14T15:03:45.874Z,6.00
2018-06-14T15:06:13.482Z,4.60
2018-06-14T15:08:41.062Z,7.80
2018-06-14T15:11:08.619Z,4.97
2018-06-14T15:13:36.243Z,4.70
2018-06-14T15:16:03.808Z,5.75
2018-06-14T15:18:31.458Z,6.45
2018-06-14T15:20:59.561Z,6.33
2018-06-14T15:23:27.225Z,4.72
2018-06-14T15:25:54.775Z,6.60
2018-06-14T15:28:22.335Z,7.03
2018-06-14T15:30:49.956Z,6.30
2018-06-14T15:33:17.543Z,5.53
2018-06-14T15:35:45.113Z,7.17
2018-06-14T15:38:12.656Z,7.70
2018-06-14T15:40:40.254Z,5.28
2018-06-14T15:43:07.823Z,6.35
2018-06-14T15:45:35.457Z,5.00
2018-06-14T15:48:03.031Z,6.62
2018-06-14T15:50:30.619Z,6.65
2018-06-14T15:52:58.214Z,6.78
2018-06-14T15:55:36.087Z,6.30
2018-06-14T15:58:03.642Z,4.47
2018-06-14T16:00:31.239Z,7.00
2018-06-14T16:02:58.835Z,4.90
2018-06-14T16:05:26.395Z,6.60
2018-06-14T16:07:54.239Z,4.60
2018-06-14T16:10:21.837Z,4.17
2018-06-14T16:12:49.410Z,4.25
2018-06-14T16:15:16.982Z,4.87
2018-06-14T16:17:44.590Z,4.37
2018-06-14T16:20:12.180Z,7.45
2018-06-14T16:22:39.747Z,7.25
2018-06-14T16:25:07.344Z,13.60
2018-06-14T16:27:34.906Z,4.97
2018-06-14T16:30:02.489Z,5.35
2018-06-14T16:32:30.466Z,4.17
2018-06-14T16:34:58.091Z,7.90
2018-06-14T16:37:25.678Z,7.10
2018-06-14T16:39:53.239Z,5.53
2018-06-14T16:42:20.798Z,4.75
2018-06-14T16:44:48.451Z,5.83
2018-06-14T16:47:16.062Z,6.80
2018-06-14T16:49:43.615Z,8.35
2018-06-14T16:52:11.207Z,3.45
2018-06-14T16:54:38.774Z,6.62
2018-06-14T16:57:06.318Z,3.95
2018-06-14T16:59:33.870Z,4.83
2018-06-14T17:02:01.453Z,5.33
2018-06-14T17:04:29.510Z,7.85
2018-06-14T17:06:57.082Z,6.37
2018-06-14T17:09:24.756Z,3.22
2018-06-14T17:11:52.340Z,6.22
2018-06-14T17:14:19.900Z,4.28
2018-06-14T17:16:47.478Z,5.15
2018-06-14T17:19:15.043Z,3.83
2018-06-14T17:21:42.617Z,7.08
2018-06-14T17:24:10.190Z,6.08
2018-06-14T17:26:37.756Z,5.30
2018-06-14T17:29:05.367Z,5.35
2018-06-14T17:31:32.968Z,7.45
2018-06-14T17:34:00.528Z,5.50
2018-06-14T17:36:28.087Z,8.73
2018-06-14T17:38:55.670Z,6.10
2018-06-14T17:41:23.278Z,3.62
2018-06-14T17:43:50.870Z,7.28
2018-06-14T17:46:18.485Z,7.35
2018-06-14T17:48:46.465Z,4.70
2018-06-14T17:51:14.311Z,4.85
2018-06-14T17:53:41.891Z,3.92
2018-06-14T17:56:09.548Z,5.70
2018-06-14T17:58:37.967Z,5.15
2018-06-14T18:01:05.888Z,2.72
2018-06-14T18:03:33.858Z,6.40
2018-06-14T18:06:02.314Z,6.03
2018-06-14T18:08:29.526Z,7.25
2018-06-14T18:10:57.107Z,6.60
2018-06-14T18:13:24.802Z,9.50
2018-06-14T18:15:52.354Z,5.37
2018-06-14T18:18:19.918Z,7.45
2018-06-14T18:20:47.491Z,4.40
2018-06-14T18:23:15.192Z,8.53
2018-06-14T18:25:42.743Z,6.70
2018-06-14T18:28:10.355Z,3.85
2018-06-14T18:30:37.947Z,7.00
2018-06-14T18:33:05.535Z,5.70
2018-06-14T18:35:33.171Z,7.33
2018-06-14T18:38:00.792Z,5.35
2018-06-14T18:40:28.780Z,9.15
2018-06-14T18:42:56.372Z,5.72
2018-06-14T18:45:24.018Z,8.83
2018-06-14T18:47:51.574Z,15.00
2018-06-14T18:50:19.201Z,9.70
2018-06-14T18:52:46.792Z,9.63
2018-06-14T18:55:14.389Z,7.72
2018-06-14T18:57:41.990Z,7.55
2018-06-14T19:00:09.598Z,11.28
2018-06-14T19:02:37.218Z,13.43
2018-06-14T19:05:04.814Z,9.00
2018-06-14T19:07:32.390Z,12.28
2018-06-14T19:10:00.079Z,8.55
2018-06-14T19:12:27.738Z,10.28
2018-06-14T19:14:55.659Z,7.55
2018-06-14T19:17:23.351Z,9.35
2018-06-14T19:19:50.927Z,8.60
2018-06-14T19:22:18.558Z,11.65
2018-06-14T19:24:46.160Z,10.25
2018-06-14T19:27:13.820Z,10.55
2018-06-14T19:29:41.392Z,13.32
2018-06-14T19:32:08.978Z,7.70
2018-06-14T19:34:36.575Z,7.95
2018-06-14T19:37:04.214Z,8.38
2018-06-14T19:39:31.816Z,10.80
2018-06-14T19:41:59.400Z,8.58
2018-06-14T19:44:27.068Z,15.43
2018-06-14T19:46:54.731Z,13.45
2018-06-14T19:49:25.609Z,10.58
2018-06-14T19:51:54.158Z,10.10
2018-06-14T19:54:21.774Z,10.35
2018-06-14T19:56:49.367Z,7.58
2018-06-14T19:59:16.978Z,11.97
2018-06-14T20:01:44.570Z,9.98
2018-06-14T20:04:12.162Z,10.08
2018-06-14T20:06:39.762Z,8.63
2018-06-14T20:09:07.695Z,7.22
2018-06-14T20:11:35.559Z,6.92
2018-06-14T20:14:03.517Z,9.78
2018-06-14T20:16:31.423Z,8.80
2018-06-14T20:18:59.253Z,9.98
2018-06-14T20:21:27.373Z,6.03
2018-06-14T20:23:54.972Z,6.53
2018-06-14T20:26:22.575Z,8.63
2018-06-14T20:28:50.381Z,9.85
2018-06-14T20:31:17.962Z,8.00
2018-06-14T20:33:45.547Z,11.10
2018-06-14T20:36:13.168Z,12.05
2018-06-14T20:38:40.766Z,10.80
2018-06-14T20:41:08.384Z,12.93
2018-06-14T20:43:35.978Z,10.32
2018-06-14T20:46:03.583Z,8.35
2018-06-14T20:48:31.182Z,9.58
2018-06-14T20:50:58.895Z,11.73
2018-06-14T20:53:26.809Z,10.68
2018-06-14T20:55:54.635Z,10.15
2018-06-14T20:58:22.279Z,8.30
2018-06-14T21:00:50.182Z,11.75
2018-06-14T21:03:17.784Z,12.55
2018-06-14T21:05:46.218Z,10.98
2018-06-14T21:08:13.796Z,19.80
2018-06-14T21:10:41.398Z,3.00
2018-06-14T21:13:08.976Z,15.67
2018-06-14T21:15:36.582Z,14.10
2018-06-14T21:18:04.186Z,13.32
2018-06-14T21:20:31.910Z,20.27
2018-06-14T21:22:59.532Z,23.20
2018-06-14T21:25:27.228Z,20.57
2018-06-14T21:27:55.043Z,21.87
2018-06-14T21:30:22.660Z,18.48
2018-06-14T21:32:50.303Z,16.73
2018-06-14T21:35:17.914Z,24.63
2018-06-14T21:37:45.547Z,23.55
2018-06-14T21:40:13.158Z,24.95
2018-06-14T21:42:40.786Z,20.85
2018-06-14T21:45:08.406Z,23.00
2018-06-14T21:47:36.018Z,24.30
2018-06-14T21:50:03.622Z,20.50
2018-06-14T21:52:31.224Z,21.82
2018-06-14T21:54:58.871Z,20.13
2018-06-14T21:57:26.602Z,25.87
2018-06-14T21:59:54.171Z,9.40
2018-06-14T22:02:57.579Z,7.17
2018-06-14T22:05:25.460Z,9.43
2018-06-14T22:07:53.532Z,6.17
2018-06-14T22:10:21.604Z,7.12
2018-06-14T22:12:49.234Z,7.00
2018-06-14T22:15:16.888Z,8.45
2018-06-14T22:17:44.471Z,9.33
2018-06-14T22:20:12.046Z,9.33
2018-06-14T22:22:39.668Z,8.40
2018-06-14T22:25:07.269Z,10.55
2018-06-14T22:27:35.050Z,8.68
2018-06-14T22:30:03.106Z,8.18
2018-06-14T22:32:31.178Z,7.22
2018-06-14T22:35:04.199Z,9.65
2018-06-14T22:37:31.787Z,9.50
2018-06-14T22:39:59.539Z,10.58
2018-06-14T22:42:27.459Z,9.45
2018-06-14T22:44:55.202Z,10.55
2018-06-14T22:47:22.814Z,9.15
2018-06-14T22:49:50.375Z,9.35
2018-06-14T22:52:51.314Z,6.85
2018-06-14T22:55:20.995Z,10.75
2018-06-14T22:57:49.069Z,10.70
2018-06-14T23:00:54.612Z,12.07
2018-06-14T23:03:22.383Z,9.98
2018-06-14T23:05:50.747Z,9.05
2018-06-14T23:08:19.141Z,8.90
2018-06-14T23:10:52.318Z,9.78
2018-06-14T23:13:19.951Z,11.43
2018-06-14T23:15:47.518Z,12.23
2018-06-14T23:18:15.090Z,12.82
2018-06-14T23:20:42.710Z,11.75
2018-06-14T23:23:10.952Z,11.95
2018-06-14T23:25:39.090Z,11.03
2018-06-14T23:28:07.503Z,11.90
2018-06-14T23:30:35.103Z,11.10
2018-06-14T23:33:02.931Z,12.10
2018-06-14T23:35:31.003Z,12.10
2018-06-14T23:37:58.584Z,11.15
2018-06-14T23:40:26.379Z,11.63
2018-06-14T23:42:54.303Z,10.45
2018-06-14T23:45:21.878Z,13.43
2018-06-14T23:47:49.438Z,10.53
2018-06-14T23:50:17.006Z,11.10
2018-06-14T23:52:44.610Z,9.63
2018-06-14T23:55:12.157Z,13.08
2018-06-14T23:57:39.735Z,12.18
